Time;durP1;ratioP1;P1;durP2;ratioP2;P2;SDS_P1;SDS_P2;PMS_P1;PMS_P2;Temp;Humidity;BMP_temperature;BMP_pressure;BME280_temperature;BME280_humidity;BME280_pressure;Samples;Min_cycle;Max_cycle;Signal;HPM_P1;HPM_P2
2022/07/03 00:01:38;;;;;;;3.17;2.20;;;18.50;99.90;;;;;;6207682;23;20171;-85
2022/07/03 00:04:07;;;;;;;4.70;2.77;;;18.30;99.90;;;;;;6157373;23;20543;-84
2022/07/03 00:06:34;;;;;;;4.07;2.00;;;18.30;99.90;;;;;;6181613;23;20869;-87
2022/07/03 00:09:03;;;;;;;3.50;2.90;;;18.50;99.90;;;;;;6157508;23;20628;-87
2022/07/03 00:11:30;;;;;;;3.77;3.23;;;18.40;99.90;;;;;;6179911;23;20973;-85
2022/07/03 00:13:58;;;;;;;3.50;3.20;;;18.40;99.90;;;;;;6134080;23;20229;-86
2022/07/03 00:16:25;;;;;;;4.67;3.40;;;18.50;99.90;;;;;;6156655;23;20163;-87
2022/07/03 00:18:52;;;;;;;4.73;3.83;;;18.60;99.90;;;;;;6182424;23;20239;-84
2022/07/03 00:21:34;;;;;;;5.73;3.80;;;18.70;99.90;;;;;;6157127;23;20709;-83
2022/07/03 00:24:08;;;;;;;4.53;3.90;;;18.70;99.90;;;;;;6183088;23;20174;-85
2022/07/03 00:26:41;;;;;;;4.37;3.97;;;18.80;99.90;;;;;;6181895;23;20165;-84
2022/07/03 00:29:09;;;;;;;6.43;3.83;;;19.00;99.90;;;;;;6180700;23;20175;-83
2022/07/03 00:31:36;;;;;;;5.67;3.70;;;19.00;99.90;;;;;;6179261;23;20793;-84
2022/07/03 00:34:08;;;;;;;4.80;4.07;;;19.00;99.90;;;;;;6157702;23;20181;-84
2022/07/03 00:36:37;;;;;;;4.23;3.20;;;19.10;99.90;;;;;;6179426;23;20159;-85
2022/07/03 00:39:04;;;;;;;5.87;3.80;;;19.00;99.90;;;;;;6208168;23;20448;-84
2022/07/03 00:41:33;;;;;;;5.00;3.80;;;19.00;99.90;;;;;;6156327;23;20243;-83
2022/07/03 00:44:02;;;;;;;5.80;3.80;;;19.00;99.90;;;;;;6157028;23;20498;-84
2022/07/03 00:46:29;;;;;;;4.80;3.27;;;18.90;99.90;;;;;;6185339;23;20198;-85
2022/07/03 00:48:58;;;;;;;5.97;3.83;;;18.90;99.90;;;;;;6187747;23;20685;-85
2022/07/03 00:51:28;;;;;;;6.57;3.30;;;18.80;99.90;;;;;;6185644;23;20197;-85
2022/07/03 00:53:56;;;;;;;4.73;3.47;;;18.70;99.90;;;;;;6183166;23;20159;-85
2022/07/03 00:56:26;;;;;;;3.73;3.10;;;18.80;99.90;;;;;;6160615;23;20171;-85
2022/07/03 00:58:56;;;;;;;5.07;3.80;;;18.80;99.90;;;;;;6184595;23;20168;-85
2022/07/03 01:01:28;;;;;;;10.30;4.83;;;18.70;99.90;;;;;;6216836;23;20269;-84
2022/07/03 01:04:39;;;;;;;6.20;4.63;;;18.50;99.90;;;;;;6202929;23;20166;-84
2022/07/03 01:07:12;;;;;;;10.40;8.57;;;18.40;99.90;;;;;;6196059;23;20248;-84
2022/07/03 01:10:02;;;;;;;11.67;8.20;;;18.40;99.90;;;;;;6188128;23;20228;-84
2022/07/03 01:12:56;;;;;;;12.27;9.07;;;18.50;99.90;;;;;;6191154;23;20174;-85
2022/07/03 01:15:49;;;;;;;8.73;6.93;;;18.50;99.90;;;;;;6191428;23;20282;-84
2022/07/03 01:18:31;;;;;;;10.33;7.27;;;18.30;99.90;;;;;;6152742;23;20176;-83
2022/07/03 01:21:11;;;;;;;10.50;6.17;;;18.20;99.90;;;;;;6192635;23;20173;-83
2022/07/03 01:24:01;;;;;;;6.23;4.50;;;18.10;99.90;;;;;;6190658;23;20169;-83
2022/07/03 01:26:34;;;;;;;5.10;4.10;;;17.60;99.90;;;;;;6194808;23;20218;-83
2022/07/03 01:29:08;;;;;;;4.87;3.53;;;17.50;99.90;;;;;;6190748;23;20196;-84
2022/07/03 01:31:38;;;;;;;5.43;3.40;;;17.50;99.90;;;;;;6216876;23;20250;-83
2022/07/03 01:34:13;;;;;;;3.90;3.50;;;17.30;99.90;;;;;;6165682;23;20163;-86
2022/07/03 01:36:46;;;;;;;5.50;3.67;;;17.40;99.90;;;;;;6186531;23;20176;-84
2022/07/03 01:39:16;;;;;;;6.23;3.73;;;17.50;99.90;;;;;;6185830;23;20176;-84
2022/07/03 01:42:05;;;;;;;3.57;3.10;;;17.50;99.90;;;;;;6166041;23;20294;-84
2022/07/03 01:44:32;;;;;;;3.73;3.03;;;17.40;99.90;;;;;;6182556;23;20231;-84
2022/07/03 01:47:01;;;;;;;5.47;3.90;;;17.50;99.90;;;;;;6156631;23;20160;-84
2022/07/03 01:49:30;;;;;;;5.43;3.03;;;17.40;99.90;;;;;;6157957;23;20246;-84
2022/07/03 01:51:58;;;;;;;4.47;3.40;;;17.50;99.90;;;;;;6180308;23;20294;-84
2022/07/03 01:54:26;;;;;;;4.17;2.70;;;17.50;99.90;;;;;;6181695;23;20161;-84
2022/07/03 01:56:54;;;;;;;5.47;2.93;;;17.40;99.90;;;;;;6206653;23;20160;-84
2022/07/03 01:59:21;;;;;;;5.93;3.33;;;17.30;99.90;;;;;;6156549;23;20167;-84
2022/07/03 02:02:31;;;;;;;3.20;2.70;;;17.20;99.90;;;;;;6180083;23;20183;-84
2022/07/03 02:05:30;;;;;;;4.47;3.20;;;17.40;99.90;;;;;;6180495;23;20172;-84
2022/07/03 02:08:12;;;;;;;4.00;3.03;;;17.40;99.90;;;;;;6160622;23;20215;-84
2022/07/03 02:11:04;;;;;;;6.43;3.40;;;17.30;99.90;;;;;;6179914;23;20234;-84
2022/07/03 02:13:37;;;;;;;5.20;3.33;;;17.20;99.90;;;;;;6180698;23;20160;-84
2022/07/03 02:16:08;;;;;;;5.20;3.37;;;17.10;99.90;;;;;;6181112;23;20165;-84
2022/07/03 02:18:37;;;;;;;4.43;3.93;;;17.00;99.90;;;;;;6180496;23;20250;-85
2022/07/03 02:21:09;;;;;;;6.63;3.33;;;16.80;99.90;;;;;;6181029;23;20237;-84
2022/07/03 02:24:02;;;;;;;5.20;3.93;;;16.80;99.90;;;;;;6206284;23;20206;-84
2022/07/03 02:26:33;;;;;;;4.80;4.00;;;16.70;99.90;;;;;;6160431;23;20216;-83
2022/07/03 02:29:06;;;;;;;5.30;4.17;;;16.70;99.90;;;;;;6155648;23;20213;-83
2022/07/03 02:31:44;;;;;;;5.43;4.03;;;16.70;99.90;;;;;;6180036;23;20222;-84
2022/07/03 02:34:16;;;;;;;7.93;5.30;;;16.90;99.90;;;;;;6181339;23;20174;-84
2022/07/03 02:36:49;;;;;;;8.43;4.87;;;16.70;99.90;;;;;;6208044;23;20176;-83
2022/07/03 02:39:25;;;;;;;6.90;5.13;;;16.70;99.90;;;;;;6183174;23;20184;-83
2022/07/03 02:42:02;;;;;;;7.97;7.13;;;16.60;99.90;;;;;;6183722;23;20206;-83
2022/07/03 02:44:45;;;;;;;10.33;8.17;;;16.70;99.90;;;;;;6185704;23;20213;-84
2022/07/03 02:47:14;;;;;;;11.80;8.00;;;16.70;99.90;;;;;;6185448;23;20395;-83
2022/07/03 02:49:58;;;;;;;12.57;9.00;;;16.80;99.90;;;;;;6184930;23;20199;-83
2022/07/03 02:52:43;;;;;;;9.60;8.60;;;16.80;99.90;;;;;;6210705;23;20230;-83
2022/07/03 02:55:25;;;;;;;12.90;7.20;;;16.70;99.90;;;;;;6185181;23;20195;-83
2022/07/03 02:58:12;;;;;;;7.13;5.87;;;16.90;99.90;;;;;;6183519;23;20210;-83
2022/07/03 03:00:48;;;;;;;8.30;5.67;;;16.80;99.90;;;;;;6185379;23;20175;-84
2022/07/03 03:03:20;;;;;;;7.90;4.80;;;16.70;99.90;;;;;;6184851;23;20162;-84
2022/07/03 03:05:53;;;;;;;5.67;4.60;;;16.70;99.90;;;;;;6161923;23;20242;-83
2022/07/03 03:08:42;;;;;;;6.33;4.70;;;16.70;99.90;;;;;;6184996;23;20170;-84
2022/07/03 03:11:23;;;;;;;6.47;3.83;;;16.70;99.90;;;;;;6212008;23;20294;-84
2022/07/03 03:13:56;;;;;;;4.60;3.83;;;16.50;99.90;;;;;;6184680;23;20199;-84
2022/07/03 03:16:23;;;;;;;5.60;4.03;;;16.60;99.90;;;;;;6211010;23;20166;-84
2022/07/03 03:18:49;;;;;;;7.50;3.97;;;16.50;99.90;;;;;;6160990;23;20181;-83
2022/07/03 03:21:17;;;;;;;4.43;4.03;;;16.50;99.90;;;;;;6159795;23;20165;-85
2022/07/03 03:23:48;;;;;;;5.63;3.50;;;16.40;99.90;;;;;;6186950;23;20162;-85
2022/07/03 03:26:20;;;;;;;5.07;4.30;;;16.30;99.90;;;;;;6185623;23;20669;-83
2022/07/03 03:28:48;;;;;;;3.97;3.43;;;16.40;99.90;;;;;;6160221;23;20165;-84
2022/07/03 03:31:18;;;;;;;6.73;4.40;;;16.60;99.90;;;;;;6183357;23;20188;-84
2022/07/03 03:33:48;;;;;;;6.70;3.80;;;16.60;99.90;;;;;;6211309;23;20165;-83
2022/07/03 03:36:18;;;;;;;6.43;3.67;;;16.60;99.90;;;;;;6183664;23;20229;-83
2022/07/03 03:38:46;;;;;;;5.40;3.93;;;16.60;99.90;;;;;;6185594;23;20561;-83
2022/07/03 03:41:13;;;;;;;5.10;4.10;;;16.70;99.90;;;;;;6180911;23;20309;-83
2022/07/03 03:43:44;;;;;;;4.60;3.50;;;16.50;99.90;;;;;;6156426;23;20162;-83
2022/07/03 03:46:11;;;;;;;6.60;3.37;;;16.50;99.90;;;;;;6156619;23;20180;-83
2022/07/03 03:48:38;;;;;;;3.80;3.37;;;16.60;99.90;;;;;;6129886;23;20614;-83
2022/07/03 03:51:07;;;;;;;3.60;3.13;;;16.50;99.90;;;;;;6155897;23;20217;-84
2022/07/03 03:53:34;;;;;;;5.97;3.23;;;16.50;99.90;;;;;;6131710;23;20472;-84
2022/07/03 03:56:02;;;;;;;4.80;3.57;;;16.50;99.90;;;;;;6129934;23;20162;-84
2022/07/03 03:58:30;;;;;;;4.03;3.03;;;16.60;99.90;;;;;;6155038;23;20657;-84
2022/07/03 04:00:58;;;;;;;4.73;3.53;;;16.60;99.90;;;;;;6155558;23;20628;-84
2022/07/03 04:03:27;;;;;;;5.07;3.30;;;16.60;99.90;;;;;;6130175;23;20222;-84
2022/07/03 04:05:54;;;;;;;3.37;2.83;;;16.50;99.90;;;;;;6152669;23;20174;-84
2022/07/03 04:08:22;;;;;;;3.90;3.00;;;16.50;99.90;;;;;;6130731;23;20170;-84
2022/07/03 04:10:50;;;;;;;3.50;3.13;;;16.70;99.90;;;;;;6180203;23;20174;-84
2022/07/03 04:13:19;;;;;;;4.20;2.57;;;16.90;99.90;;;;;;6154903;23;20232;-85
2022/07/03 04:15:50;;;;;;;3.30;3.00;;;16.80;99.90;;;;;;6130527;23;20170;-84
2022/07/03 04:18:18;;;;;;;3.97;2.80;;;16.50;99.90;;;;;;6153684;23;20248;-83
2022/07/03 04:20:45;;;;;;;4.50;2.70;;;16.50;99.90;;;;;;6128604;23;20193;-83
2022/07/03 04:23:12;;;;;;;3.90;2.87;;;16.20;99.90;;;;;;6154089;23;20632;-84
2022/07/03 04:25:39;;;;;;;3.23;2.60;;;16.20;99.90;;;;;;6130134;23;20227;-84
2022/07/03 04:28:06;;;;;;;4.47;2.60;;;16.40;99.90;;;;;;6152527;23;20203;-83
2022/07/03 04:30:47;;;;;;;4.00;2.27;;;16.50;99.90;;;;;;6135193;23;20175;-84
2022/07/03 04:33:14;;;;;;;4.73;2.70;;;16.50;99.90;;;;;;6154618;23;20167;-84
2022/07/03 04:35:41;;;;;;;3.37;2.10;;;16.50;99.90;;;;;;6154166;23;20252;-84
2022/07/03 04:38:08;;;;;;;3.90;2.40;;;16.50;99.90;;;;;;6130772;23;20709;-84
2022/07/03 04:40:35;;;;;;;2.70;2.47;;;16.60;99.90;;;;;;6130575;23;20506;-83
2022/07/03 04:43:01;;;;;;;4.53;2.30;;;16.60;99.90;;;;;;6155708;23;20204;-83
2022/07/03 04:45:28;;;;;;;2.20;1.83;;;16.50;99.90;;;;;;6161719;23;20163;-83
2022/07/03 04:47:55;;;;;;;4.70;2.40;;;16.40;99.90;;;;;;6134424;23;20667;-83
2022/07/03 04:50:22;;;;;;;2.97;2.00;;;16.30;99.90;;;;;;6184820;23;20162;-84
2022/07/03 04:52:49;;;;;;;2.90;2.30;;;16.30;99.90;;;;;;6136811;23;20486;-84
2022/07/03 04:55:16;;;;;;;5.20;2.00;;;16.40;99.90;;;;;;6136724;23;20222;-84
2022/07/03 04:57:43;;;;;;;5.13;2.03;;;16.50;99.90;;;;;;6185196;23;20164;-84
2022/07/03 05:00:11;;;;;;;3.47;1.90;;;16.50;99.90;;;;;;6160263;23;20161;-83
2022/07/03 05:02:37;;;;;;;3.57;2.50;;;16.60;99.90;;;;;;6183496;23;20218;-83
2022/07/03 05:05:05;;;;;;;2.00;1.80;;;16.70;99.90;;;;;;6184688;23;20168;-84
2022/07/03 05:07:32;;;;;;;2.77;1.97;;;16.90;99.90;;;;;;6136244;23;20156;-83
2022/07/03 05:09:59;;;;;;;3.97;2.20;;;17.00;99.90;;;;;;6134933;23;20179;-84
2022/07/03 05:12:26;;;;;;;3.67;1.97;;;17.10;99.90;;;;;;6134254;23;20637;-83
2022/07/03 05:14:53;;;;;;;3.10;1.80;;;17.00;99.90;;;;;;6160170;23;20218;-84
2022/07/03 05:17:20;;;;;;;3.53;2.03;;;16.90;99.90;;;;;;6135019;23;20693;-83
2022/07/03 05:19:47;;;;;;;2.23;1.90;;;16.90;99.90;;;;;;6159721;23;20164;-83
2022/07/03 05:22:17;;;;;;;3.10;1.90;;;17.20;99.90;;;;;;6184226;23;20243;-82
2022/07/03 05:24:44;;;;;;;5.40;2.50;;;17.20;99.90;;;;;;6134236;23;20259;-83
2022/07/03 05:27:10;;;;;;;2.80;1.80;;;17.10;99.90;;;;;;6160041;23;20662;-83
2022/07/03 05:29:37;;;;;;;2.93;1.90;;;17.30;99.90;;;;;;6159465;23;20196;-83
2022/07/03 05:32:05;;;;;;;2.30;1.97;;;17.40;99.90;;;;;;6134695;23;20207;-85
2022/07/03 05:34:32;;;;;;;3.10;2.00;;;17.50;99.90;;;;;;6159233;23;20152;-83
2022/07/03 05:36:59;;;;;;;3.20;2.20;;;17.60;99.90;;;;;;6133436;23;20239;-83
2022/07/03 05:39:31;;;;;;;4.57;2.07;;;17.60;99.90;;;;;;6135647;23;20249;-83
2022/07/03 05:41:58;;;;;;;2.73;1.80;;;17.60;99.90;;;;;;6131841;23;20204;-83
2022/07/03 05:44:25;;;;;;;3.73;1.90;;;17.80;99.90;;;;;;6155557;23;20554;-84
2022/07/03 05:46:52;;;;;;;4.63;2.37;;;18.00;99.90;;;;;;6152816;23;20165;-84
2022/07/03 05:49:19;;;;;;;3.00;1.80;;;17.70;99.90;;;;;;6154768;23;20265;-83
2022/07/03 05:51:46;;;;;;;2.53;1.90;;;17.90;99.90;;;;;;6153015;23;20196;-84
2022/07/03 05:54:13;;;;;;;5.73;2.00;;;17.80;99.90;;;;;;6153300;23;20164;-84
2022/07/03 05:56:40;;;;;;;6.73;1.77;;;18.10;99.90;;;;;;6177908;23;20175;-83
2022/07/03 05:59:07;;;;;;;4.67;1.83;;;18.00;99.90;;;;;;6178829;23;20172;-83
2022/07/03 06:01:34;;;;;;;9.43;2.20;;;17.90;99.90;;;;;;6149410;23;20233;-84
2022/07/03 06:04:01;;;;;;;4.27;2.37;;;17.80;99.90;;;;;;6155649;23;20161;-84
2022/07/03 06:06:28;;;;;;;2.57;1.90;;;17.70;99.90;;;;;;6177805;23;20171;-83
2022/07/03 06:08:54;;;;;;;3.13;2.30;;;17.60;99.90;;;;;;6153904;23;20164;-84
2022/07/03 06:11:22;;;;;;;3.97;1.90;;;17.70;99.90;;;;;;6153650;23;20169;-84
2022/07/03 06:13:48;;;;;;;3.13;1.77;;;17.80;99.90;;;;;;6154750;23;20169;-84
2022/07/03 06:16:15;;;;;;;3.67;1.70;;;17.80;99.90;;;;;;6152962;23;20161;-83
2022/07/03 06:18:43;;;;;;;3.33;1.57;;;18.00;99.90;;;;;;6154819;23;20171;-84
2022/07/03 06:21:10;;;;;;;3.37;2.37;;;18.10;99.90;;;;;;6155070;23;20169;-86
2022/07/03 06:23:37;;;;;;;3.43;1.70;;;18.00;99.90;;;;;;6156233;23;20162;-85
2022/07/03 06:26:14;;;;;;;3.63;1.93;;;18.10;99.90;;;;;;6158675;23;20160;-84
2022/07/03 06:28:42;;;;;;;2.87;1.80;;;18.00;99.90;;;;;;6155640;23;20186;-83
2022/07/03 06:31:09;;;;;;;5.10;2.37;;;18.20;99.90;;;;;;6155292;23;20188;-83
2022/07/03 06:33:36;;;;;;;3.97;1.77;;;18.20;99.90;;;;;;6156442;23;20184;-83
2022/07/03 06:36:03;;;;;;;3.53;1.80;;;18.40;99.90;;;;;;6154733;23;20169;-83
2022/07/03 06:38:30;;;;;;;4.30;2.00;;;18.30;99.90;;;;;;6155062;23;20680;-83
2022/07/03 06:40:57;;;;;;;4.83;2.13;;;18.50;99.90;;;;;;6156334;23;20349;-82
2022/07/03 06:43:24;;;;;;;6.00;2.00;;;18.70;99.90;;;;;;6156681;23;20218;-83
2022/07/03 06:45:52;;;;;;;4.93;2.43;;;18.70;99.90;;;;;;6157647;23;20188;-84
2022/07/03 06:48:19;;;;;;;3.07;1.80;;;19.00;99.90;;;;;;6158131;23;20482;-85
2022/07/03 06:50:46;;;;;;;2.73;1.90;;;19.20;99.90;;;;;;6182171;23;20489;-84
2022/07/03 06:53:13;;;;;;;6.17;2.50;;;18.90;99.90;;;;;;6155984;23;20189;-81
2022/07/03 06:55:40;;;;;;;5.50;2.70;;;18.50;99.90;;;;;;6153443;23;20279;-81
2022/07/03 06:58:07;;;;;;;7.23;2.13;;;18.40;99.90;;;;;;6154833;23;20168;-82
2022/07/03 07:00:36;;;;;;;3.57;1.90;;;18.60;99.90;;;;;;6156137;23;20232;-86
2022/07/03 07:03:03;;;;;;;4.17;1.90;;;18.90;99.90;;;;;;6156403;23;20180;-85
2022/07/03 07:05:30;;;;;;;6.47;1.93;;;18.90;99.90;;;;;;6154677;23;20670;-84
2022/07/03 07:07:57;;;;;;;8.93;2.20;;;19.20;99.90;;;;;;6155103;23;20188;-84
2022/07/03 07:10:24;;;;;;;3.53;1.83;;;19.20;99.90;;;;;;6154793;23;20161;-85
2022/07/03 07:12:51;;;;;;;3.60;1.90;;;19.60;99.90;;;;;;6154701;23;20280;-85
2022/07/03 07:15:18;;;;;;;5.77;2.00;;;19.80;99.90;;;;;;6154411;23;20161;-84
2022/07/03 07:17:45;;;;;;;4.37;1.93;;;19.70;99.90;;;;;;6151773;23;20157;-80
2022/07/03 07:20:11;;;;;;;4.20;1.80;;;19.90;99.90;;;;;;6153286;23;20581;-80
2022/07/03 07:22:38;;;;;;;3.53;1.73;;;20.10;99.90;;;;;;6154401;23;20204;-81
2022/07/03 07:25:08;;;;;;;3.97;1.63;;;20.30;99.90;;;;;;6178352;23;20172;-80
2022/07/03 07:27:35;;;;;;;3.10;1.57;;;20.40;99.90;;;;;;6156256;23;20200;-81
2022/07/03 07:30:02;;;;;;;5.27;1.90;;;20.70;99.90;;;;;;6155414;23;20175;-81
2022/07/03 07:32:29;;;;;;;6.97;1.90;;;20.30;99.90;;;;;;6155223;23;20641;-80
2022/07/03 07:34:56;;;;;;;3.97;2.00;;;20.70;99.90;;;;;;6154306;23;20248;-80
2022/07/03 07:37:23;;;;;;;3.53;1.77;;;20.90;99.90;;;;;;6154142;23;20161;-81
2022/07/03 07:39:50;;;;;;;3.17;1.33;;;21.20;99.90;;;;;;6155934;23;20197;-81
2022/07/03 07:42:16;;;;;;;4.70;1.60;;;21.10;99.90;;;;;;6161935;23;20644;-81
2022/07/03 07:44:43;;;;;;;3.10;1.70;;;20.90;99.90;;;;;;6186275;23;20215;-80
2022/07/03 07:47:10;;;;;;;4.37;1.43;;;21.00;99.90;;;;;;6183954;23;20616;-80
2022/07/03 07:49:37;;;;;;;4.53;1.40;;;20.70;99.90;;;;;;6185036;23;20183;-81
2022/07/03 07:52:04;;;;;;;3.03;1.37;;;20.70;99.90;;;;;;6135543;23;20187;-80
2022/07/03 07:54:32;;;;;;;3.30;1.40;;;20.50;99.90;;;;;;6160873;23;20187;-81
2022/07/03 07:56:59;;;;;;;3.13;1.50;;;20.80;99.90;;;;;;6137143;23;20168;-81
2022/07/03 07:59:26;;;;;;;3.03;1.43;;;21.00;99.90;;;;;;6137012;23;20160;-81
2022/07/03 08:07:24;;;;;;;2.23;0.80;;;21.10;99.90;;;;;;6210587;23;20164;-81
2022/07/03 08:09:53;;;;;;;1.63;0.83;;;21.20;99.90;;;;;;6135530;23;20286;-81
2022/07/03 08:12:20;;;;;;;3.77;1.30;;;21.00;99.90;;;;;;6136730;23;20212;-81
2022/07/03 08:14:47;;;;;;;1.50;1.10;;;21.10;99.90;;;;;;6185644;23;20552;-81
2022/07/03 08:17:14;;;;;;;2.40;1.10;;;21.00;99.90;;;;;;6159603;23;20187;-81
2022/07/03 08:19:41;;;;;;;4.07;1.30;;;21.20;99.90;;;;;;6135668;23;20573;-81
2022/07/03 08:22:08;;;;;;;2.53;1.10;;;21.50;99.90;;;;;;6184628;23;20194;-80
2022/07/03 08:24:37;;;;;;;2.27;1.17;;;21.80;99.90;;;;;;6185780;23;20160;-81
2022/07/03 08:27:10;;;;;;;3.87;1.30;;;22.00;99.90;;;;;;6186448;23;20600;-80
2022/07/03 08:29:37;;;;;;;3.47;1.37;;;21.90;99.90;;;;;;6135274;23;20611;-80
2022/07/03 08:32:04;;;;;;;4.37;1.30;;;21.70;99.90;;;;;;6131931;23;20203;-80
2022/07/03 08:34:31;;;;;;;2.40;1.00;;;21.90;99.90;;;;;;6160014;23;20267;-80
2022/07/03 08:36:58;;;;;;;1.10;1.00;;;21.40;99.90;;;;;;6158471;23;20540;-80
2022/07/03 08:39:25;;;;;;;3.90;0.90;;;21.60;99.90;;;;;;6136171;23;20168;-80
2022/07/03 08:41:53;;;;;;;3.07;1.13;;;22.30;99.90;;;;;;6130459;23;20208;-80
2022/07/03 08:44:22;;;;;;;3.77;1.20;;;22.50;99.90;;;;;;6155873;23;20264;-80
2022/07/03 08:46:49;;;;;;;1.93;1.10;;;22.10;88.80;;;;;;6152999;23;20636;-80
2022/07/03 08:49:18;;;;;;;2.00;1.07;;;21.80;99.90;;;;;;6178973;23;20602;-80
2022/07/03 08:51:46;;;;;;;2.47;1.10;;;22.40;99.90;;;;;;6153622;23;20171;-81
2022/07/03 08:54:13;;;;;;;2.20;1.17;;;22.70;99.90;;;;;;6153735;23;20165;-80
2022/07/03 08:56:42;;;;;;;3.80;1.30;;;22.80;99.90;;;;;;6154002;23;20171;-80
2022/07/03 08:59:09;;;;;;;2.53;1.30;;;22.70;90.60;;;;;;6155289;23;20164;-80
2022/07/03 09:01:41;;;;;;;4.50;1.10;;;21.90;99.90;;;;;;6153681;23;20176;-80
2022/07/03 09:04:13;;;;;;;3.07;0.90;;;21.80;99.90;;;;;;6155437;23;20160;-80
2022/07/03 09:06:41;;;;;;;1.93;1.07;;;21.60;99.90;;;;;;6154564;23;20237;-80
2022/07/03 09:09:08;;;;;;;1.93;1.13;;;22.20;99.90;;;;;;6152925;23;20165;-81
2022/07/03 09:11:39;;;;;;;2.23;1.30;;;22.20;99.90;;;;;;6152035;23;20165;-80
2022/07/03 09:14:06;;;;;;;3.07;1.30;;;22.20;99.90;;;;;;6154150;23;20243;-80
2022/07/03 09:16:37;;;;;;;4.50;2.40;;;22.40;99.90;;;;;;6154701;23;20159;-81
2022/07/03 09:19:05;;;;;;;2.13;1.40;;;22.50;93.80;;;;;;6155258;23;20212;-80
2022/07/03 09:21:37;;;;;;;2.03;1.43;;;22.80;98.90;;;;;;6153658;23;20171;-80
2022/07/03 09:24:06;;;;;;;2.88;1.50;;;22.80;99.90;;;;;;6178026;23;20469;-78
2022/07/03 09:26:34;;;;;;;3.47;1.47;;;22.00;99.90;;;;;;6154850;23;20225;-79
2022/07/03 09:29:02;;;;;;;3.87;1.20;;;21.60;99.90;;;;;;6180191;23;20161;-79
2022/07/03 09:31:30;;;;;;;2.90;1.30;;;21.60;99.90;;;;;;6153188;23;20196;-78
2022/07/03 09:33:58;;;;;;;1.57;1.20;;;22.10;99.90;;;;;;6154139;23;20199;-78
2022/07/03 09:36:45;;;;;;;3.40;1.47;;;22.20;99.90;;;;;;6179194;23;20198;-78
2022/07/03 09:39:37;;;;;;;2.63;1.40;;;21.90;99.90;;;;;;6154514;23;20169;-78
2022/07/03 09:42:06;;;;;;;2.27;1.30;;;22.00;99.90;;;;;;6179738;23;20303;-78
2022/07/03 09:44:41;;;;;;;3.20;1.47;;;21.70;99.90;;;;;;6177237;23;20172;-78
2022/07/03 09:47:14;;;;;;;5.00;1.50;;;21.40;99.90;;;;;;6152644;23;20865;-78
2022/07/03 09:49:54;;;;;;;3.23;1.60;;;21.80;99.90;;;;;;6128965;23;20620;-78
2022/07/03 09:52:39;;;;;;;2.20;1.40;;;21.90;99.90;;;;;;6179139;23;20523;-78
2022/07/03 09:55:09;;;;;;;2.23;1.40;;;22.00;99.90;;;;;;6151081;23;20168;-79
2022/07/03 09:57:41;;;;;;;2.37;1.20;;;22.30;99.90;;;;;;6154693;23;20550;-79
2022/07/03 10:00:35;;;;;;;3.83;1.20;;;22.40;99.90;;;;;;6153968;23;20489;-79
2022/07/03 10:03:08;;;;;;;1.53;1.03;;;22.80;99.90;;;;;;6128826;23;20691;-78
2022/07/03 10:05:38;;;;;;;2.87;1.20;;;23.30;92.80;;;;;;6173538;23;20171;-79
2022/07/03 10:08:10;;;;;;;1.97;1.00;;;22.90;94.30;;;;;;6152157;23;20165;-78
2022/07/03 10:10:39;;;;;;;1.93;1.10;;;23.10;90.80;;;;;;6177692;23;20614;-79
2022/07/03 10:13:06;;;;;;;2.60;1.10;;;22.70;30.80;;;;;;6151423;23;20227;-78
2022/07/03 10:15:37;;;;;;;1.27;1.17;;;22.60;74.50;;;;;;6151430;23;20166;-78
2022/07/03 10:18:07;;;;;;;1.73;1.20;;;22.60;87.40;;;;;;6151330;23;20188;-77
2022/07/03 10:20:43;;;;;;;4.43;1.30;;;23.20;99.70;;;;;;6151050;23;20170;-78
2022/07/03 10:23:10;;;;;;;3.27;1.30;;;23.30;21.30;;;;;;6150792;23;20223;-78
2022/07/03 10:25:40;;;;;;;4.00;1.50;;;23.20;67.90;;;;;;6153135;23;20167;-78
2022/07/03 10:28:12;;;;;;;5.23;1.87;;;23.10;6.70;;;;;;6180850;23;20165;-79
2022/07/03 10:30:39;;;;;;;1.93;1.13;;;22.60;17.50;;;;;;6178061;23;20167;-79
2022/07/03 10:33:06;;;;;;;1.97;0.90;;;22.30;53.80;;;;;;6152092;23;20492;-78
2022/07/03 10:35:37;;;;;;;1.97;1.00;;;22.20;53.50;;;;;;6127602;23;20623;-83
2022/07/03 10:38:36;;;;;;;1.87;1.07;;;22.20;38.30;;;;;;6179529;23;20157;-79
2022/07/03 10:46:48;;;;;;;3.23;1.03;;;22.50;73.60;;;;;;6178787;23;20234;-80
2022/07/03 10:49:15;;;;;;;2.30;0.73;;;22.40;94.70;;;;;;6130635;23;20179;-79
2022/07/03 10:51:47;;;;;;;2.70;0.80;;;22.80;40.20;;;;;;6130685;23;20584;-80
2022/07/03 10:54:21;;;;;;;1.93;0.77;;;22.60;55.70;;;;;;6154090;23;20209;-79
2022/07/03 10:57:02;;;;;;;3.13;1.20;;;22.40;41.40;;;;;;6156394;23;20157;-79
2022/07/03 10:59:35;;;;;;;3.87;0.90;;;22.60;60.70;;;;;;6155981;23;20165;-79
2022/07/03 11:02:22;;;;;;;1.20;0.63;;;22.50;51.90;;;;;;6157102;23;20586;-79
2022/07/03 11:07:47;;;;;;;3.43;1.23;;;22.60;29.90;;;;;;6182353;23;20169;-79
2022/07/03 11:10:17;;;;;;;2.80;1.00;;;22.20;45.10;;;;;;6154898;23;20799;-79
2022/07/03 11:12:56;;;;;;;1.60;0.83;;;22.10;54.00;;;;;;6155183;23;20199;-79
2022/07/03 11:15:34;;;;;;;2.57;1.30;;;21.80;67.40;;;;;;6155386;23;20197;-79
2022/07/03 11:18:16;;;;;;;2.50;1.20;;;21.70;93.00;;;;;;6155862;23;20154;-78
2022/07/03 11:20:42;;;;;;;3.87;1.03;;;21.80;99.90;;;;;;6180748;23;20736;-79
2022/07/03 11:23:09;;;;;;;2.33;0.90;;;22.00;96.60;;;;;;6180325;23;20552;-81
2022/07/03 11:25:45;;;;;;;2.13;0.97;;;22.10;96.50;;;;;;6155693;23;20171;-84
2022/07/03 11:28:31;;;;;;;4.43;1.00;;;22.00;91.40;;;;;;6149715;23;20168;-84
2022/07/03 11:31:13;;;;;;;1.27;1.03;;;21.90;99.90;;;;;;6145229;23;20179;-82
2022/07/03 11:33:57;;;;;;;1.83;0.90;;;21.80;95.70;;;;;;6177671;23;20257;-82
2022/07/03 11:36:32;;;;;;;1.50;1.40;;;22.80;98.40;;;;;;6150593;23;20161;-83
2022/07/03 11:38:59;;;;;;;3.10;1.37;;;23.30;67.30;;;;;;6128570;23;20176;-82
2022/07/03 11:41:36;;;;;;;2.33;1.20;;;23.00;9.20;;;;;;6159778;23;20266;-81
2022/07/03 11:44:07;;;;;;;2.57;0.97;;;23.00;78.20;;;;;;6185597;23;20211;-81
2022/07/03 11:46:36;;;;;;;3.27;1.03;;;23.00;19.70;;;;;;6211600;23;20301;-80
2022/07/03 11:49:07;;;;;;;3.77;0.90;;;23.30;4.10;;;;;;6136521;23;20170;-81
2022/07/03 11:51:36;;;;;;;4.33;1.13;;;24.80;26.00;;;;;;6161533;23;20291;-82
2022/07/03 11:54:04;;;;;;;1.73;1.20;;;24.50;1.00;;;;;;6185289;23;20534;-82
2022/07/03 11:56:32;;;;;;;1.50;1.30;;;24.10;1.00;;;;;;6186678;23;20474;-82
2022/07/03 11:59:01;;;;;;;2.50;1.20;;;23.50;9.20;;;;;;6186224;23;20160;-81
2022/07/03 12:01:30;;;;;;;2.47;1.47;;;23.70;1.00;;;;;;6185102;23;20164;-82
2022/07/03 12:04:09;;;;;;;2.23;1.20;;;25.00;1.00;;;;;;6212929;23;20173;-82
2022/07/03 12:06:45;;;;;;;3.70;1.50;;;25.20;1.00;;;;;;6160497;23;20203;-82
2022/07/03 12:09:18;;;;;;;3.43;1.40;;;25.50;1.00;;;;;;6184799;23;20544;-82
2022/07/03 12:12:06;;;;;;;1.60;1.50;;;25.40;9.60;;;;;;6211807;23;20485;-81
2022/07/03 12:14:50;;;;;;;2.50;1.40;;;24.80;1.00;;;;;;6186497;23;20185;-82
2022/07/03 12:17:19;;;;;;;1.63;1.40;;;24.10;1.00;;;;;;6185432;23;20161;-81
2022/07/03 12:19:48;;;;;;;2.90;1.60;;;23.60;1.00;;;;;;6211318;23;20515;-82
2022/07/03 12:22:33;;;;;;;1.57;1.20;;;23.40;1.00;;;;;;6185490;23;20604;-82
2022/07/03 12:25:04;;;;;;;2.40;1.37;;;22.90;24.20;;;;;;6184492;23;20161;-81
2022/07/03 12:27:36;;;;;;;3.73;1.27;;;22.30;46.90;;;;;;6184135;23;20289;-82
2022/07/03 12:30:06;;;;;;;1.77;1.67;;;22.50;31.90;;;;;;6183224;23;20167;-82
2022/07/03 12:32:33;;;;;;;1.97;1.70;;;22.40;48.40;;;;;;6158634;23;20162;-81
2022/07/03 12:35:00;;;;;;;2.03;1.77;;;23.00;33.30;;;;;;6158154;23;20276;-82
2022/07/03 12:37:32;;;;;;;2.97;1.73;;;23.90;1.00;;;;;;6184814;23;20485;-82
2022/07/03 12:39:59;;;;;;;2.60;1.53;;;23.30;33.30;;;;;;6183304;23;20573;-81
2022/07/03 12:42:26;;;;;;;2.40;1.97;;;24.10;7.70;;;;;;6158816;23;20197;-82
2022/07/03 12:45:04;;;;;;;2.57;1.60;;;23.80;1.00;;;;;;6159025;23;20167;-82
2022/07/03 12:47:31;;;;;;;1.60;1.50;;;25.20;1.00;;;;;;6158559;23;20656;-81
2022/07/03 12:50:04;;;;;;;3.23;1.70;;;25.40;1.00;;;;;;6158402;23;20681;-81
2022/07/03 12:52:33;;;;;;;2.93;1.53;;;24.80;1.00;;;;;;6184283;23;20477;-81
2022/07/03 12:55:01;;;;;;;1.93;1.70;;;24.40;1.00;;;;;;6183169;23;20188;-82
2022/07/03 13:00:19;;;;;;;4.03;1.70;;;24.40;1.00;;;;;;6188379;23;20168;-81
2022/07/03 13:02:48;;;;;;;3.17;1.87;;;23.80;1.00;;;;;;6183473;23;20171;-80
2022/07/03 13:05:21;;;;;;;3.37;1.80;;;23.30;1.00;;;;;;6209913;23;20169;-79
2022/07/03 13:07:53;;;;;;;2.47;1.80;;;24.00;1.00;;;;;;6185013;23;20173;-80
2022/07/03 13:10:22;;;;;;;4.50;2.13;;;23.70;1.00;;;;;;6183826;23;20176;-82
2022/07/03 13:12:51;;;;;;;2.60;1.50;;;24.20;1.00;;;;;;6184646;23;20218;-82
2022/07/03 13:15:19;;;;;;;1.57;1.40;;;24.40;1.00;;;;;;6211412;23;20195;-82
2022/07/03 13:17:55;;;;;;;1.87;1.40;;;24.50;1.00;;;;;;6160087;23;20208;-82
2022/07/03 13:20:32;;;;;;;2.00;1.30;;;23.90;1.00;;;;;;6211422;23;20163;-82
2022/07/03 13:23:01;;;;;;;1.60;0.87;;;24.20;1.00;;;;;;6159970;23;20199;-82
2022/07/03 13:25:30;;;;;;;2.13;1.40;;;24.50;1.00;;;;;;6184055;23;20216;-82